Time;durP1;ratioP1;P1;durP2;ratioP2;P2;SDS_P1;SDS_P2;PMS_P1;PMS_P2;Temp;Humidity;BMP_temperature;BMP_pressure;BME280_temperature;BME280_humidity;BME280_pressure;Samples;Min_cycle;Max_cycle;Signal;HPM_P1;HPM_P2
2023/03/02 00:00:15;;;;;;;;;51.60;41.60;;;;;6.24;44.91;101445.78;2087243;28;46594;-65
2023/03/02 00:01:16;;;;;;;;;46.00;39.00;;;;;6.24;44.79;101449.31;2087426;28;46345;-66
2023/03/02 00:02:21;;;;;;;;;51.00;43.00;;;;;6.24;44.66;101456.34;2086915;28;47172;-67
2023/03/02 00:03:21;;;;;;;;;50.60;40.80;;;;;6.25;44.55;101456.34;2086852;28;46974;-66
2023/03/02 00:04:28;;;;;;;;;47.25;38.50;;;;;6.24;44.35;101459.84;2086853;28;46349;-67
2023/03/02 00:05:29;;;;;;;;;49.00;41.40;;;;;6.24;44.40;101459.84;2078740;28;46987;-67
2023/03/02 00:06:31;;;;;;;;;43.80;39.60;;;;;6.22;44.51;101455.41;2082334;28;46059;-66
2023/03/02 00:07:33;;;;;;;;;47.20;40.80;;;;;6.22;44.75;101455.41;2087358;28;45682;-67
2023/03/02 00:08:35;;;;;;;;;42.60;37.00;;;;;6.20;44.37;101448.38;2087251;28;46368;-66
2023/03/02 00:09:36;;;;;;;;;51.80;42.80;;;;;6.20;44.41;101451.00;2087473;28;46314;-66
2023/03/02 00:10:37;;;;;;;;;49.40;39.20;;;;;6.20;44.75;101450.13;2086921;28;45791;-66
2023/03/02 00:11:38;;;;;;;;;45.80;40.00;;;;;6.19;44.65;101454.53;2087059;28;46254;-66
2023/03/02 00:12:38;;;;;;;;;45.25;40.00;;;;;6.18;45.08;101459.78;2087503;28;45701;-67
2023/03/02 00:13:38;;;;;;;;;50.25;42.00;;;;;6.18;44.46;101457.16;2095820;28;47219;-67
2023/03/02 00:14:39;;;;;;;;;48.25;41.50;;;;;6.18;44.40;101459.78;2091267;28;45598;-66
2023/03/02 00:15:39;;;;;;;;;42.00;38.00;;;;;6.17;44.91;101460.66;2082538;28;46475;-66
2023/03/02 00:16:39;;;;;;;;;43.75;37.75;;;;;6.16;44.49;101458.91;2096020;28;45188;-66
2023/03/02 00:17:40;;;;;;;;;39.25;35.00;;;;;6.15;45.06;101455.38;2095422;28;46319;-67
2023/03/02 00:18:40;;;;;;;;;51.75;39.50;;;;;6.15;44.90;101458.00;2079715;28;46402;-66
2023/03/02 00:19:40;;;;;;;;;48.75;40.50;;;;;6.15;45.15;101455.38;2079962;28;46903;-67
2023/03/02 00:20:41;;;;;;;;;39.00;36.00;;;;;6.15;44.71;101455.38;2079321;28;46509;-67
2023/03/02 00:21:41;;;;;;;;;53.00;42.00;;;;;6.14;45.01;101453.63;2079500;28;46327;-66
2023/03/02 00:22:43;;;;;;;;;48.25;42.00;;;;;6.14;45.28;101453.63;2079721;28;46862;-67
2023/03/02 00:23:44;;;;;;;;;42.80;39.20;;;;;6.13;45.05;101451.84;2079942;28;46830;-67
2023/03/02 00:24:44;;;;;;;;;43.50;38.50;;;;;6.13;44.72;101454.50;2079227;28;46828;-67
2023/03/02 00:25:44;;;;;;;;;46.50;38.50;;;;;6.13;44.91;101458.88;2077526;28;45608;-67
2023/03/02 00:26:45;;;;;;;;;48.00;42.00;;;;;6.14;44.71;101463.28;2079510;28;46828;-67
2023/03/02 00:27:45;;;;;;;;;53.50;44.50;;;;;6.12;45.19;101459.75;2078994;28;45798;-66
2023/03/02 00:28:46;;;;;;;;;45.75;41.25;;;;;6.13;44.97;101459.75;2079424;28;45701;-67
2023/03/02 00:29:46;;;;;;;;;43.75;39.00;;;;;6.11;44.91;101458.88;2079716;28;45821;-67
2023/03/02 00:30:47;;;;;;;;;45.25;39.50;;;;;6.10;44.90;101456.22;2079672;28;46095;-65
2023/03/02 00:31:47;;;;;;;;;43.75;37.50;;;;;6.10;44.77;101459.75;2079610;28;46430;-67
2023/03/02 00:32:47;;;;;;;;;52.25;44.25;;;;;6.10;45.12;101465.00;2083265;28;46183;-67
2023/03/02 00:33:50;;;;;;;;;46.50;40.00;;;;;6.10;45.29;101457.09;2088071;28;46707;-66
2023/03/02 00:34:50;;;;;;;;;42.60;38.40;;;;;6.10;44.83;101458.84;2085196;28;46331;-66
2023/03/02 00:35:51;;;;;;;;;52.00;41.25;;;;;6.09;45.16;101454.44;2084622;28;46595;-67
2023/03/02 00:36:51;;;;;;;;;46.00;39.50;;;;;6.07;45.19;101451.78;2079428;28;46867;-66
2023/03/02 00:37:51;;;;;;;;;49.25;40.25;;;;;6.08;45.26;101450.03;2079831;28;45096;-66
2023/03/02 00:38:52;;;;;;;;;38.25;35.25;;;;;6.08;45.17;101452.66;2079591;28;46484;-66
2023/03/02 00:39:52;;;;;;;;;48.50;40.75;;;;;6.07;44.88;101445.63;2087201;28;45946;-66
2023/03/02 00:40:54;;;;;;;;;53.00;40.25;;;;;6.07;45.01;101456.16;2085874;28;46179;-65
2023/03/02 00:41:55;;;;;;;;;49.40;40.40;;;;;6.05;44.71;101450.88;2088101;28;45881;-66
2023/03/02 00:42:55;;;;;;;;;42.25;39.25;;;;;6.04;45.01;101453.53;2083867;28;46670;-66
2023/03/02 00:43:55;;;;;;;;;47.75;40.25;;;;;6.03;45.24;101449.13;2080923;28;45827;-66
2023/03/02 00:44:58;;;;;;;;;55.50;43.50;;;;;6.04;45.25;101454.41;2087986;28;46882;-66
2023/03/02 00:45:58;;;;;;;;;46.40;40.40;;;;;6.02;44.92;101464.03;2087382;28;46721;-66
2023/03/02 00:46:58;;;;;;;;;50.75;43.25;;;;;6.02;45.18;101458.78;2087320;28;46773;-66
2023/03/02 00:47:59;;;;;;;;;44.25;39.25;;;;;6.02;45.06;101460.53;2095467;28;45047;-67
2023/03/02 00:48:59;;;;;;;;;38.75;37.50;;;;;6.01;44.84;101458.78;2095772;28;45125;-66
2023/03/02 00:50:00;;;;;;;;;48.00;40.25;;;;;6.00;45.49;101457.88;2084102;28;45291;-66
2023/03/02 00:51:00;;;;;;;;;49.00;41.00;;;;;5.99;45.24;101458.75;2079112;28;45687;-67
2023/03/02 00:52:02;;;;;;;;;47.25;39.00;;;;;5.98;45.26;101453.47;2080725;28;45834;-66
2023/03/02 00:53:03;;;;;;;;;43.60;37.80;;;;;5.98;45.18;101461.38;2086803;28;46141;-66
2023/03/02 00:54:04;;;;;;;;;44.00;38.40;;;;;5.97;45.58;101455.22;2084751;28;45196;-66
2023/03/02 00:55:05;;;;;;;;;44.00;39.75;;;;;5.96;45.10;101461.34;2090404;28;46300;-67
2023/03/02 00:56:07;;;;;;;;;52.00;44.00;;;;;5.96;45.49;101460.47;2095326;28;45692;-67
2023/03/02 00:57:08;;;;;;;;;44.40;39.40;;;;;5.95;45.66;101456.94;2082855;28;45124;-68
2023/03/02 00:58:08;;;;;;;;;51.20;41.80;;;;;5.95;45.37;101456.06;2087084;28;46979;-68
2023/03/02 00:59:25;;;;;;;;;47.75;40.75;;;;;5.94;45.71;101451.66;2095703;28;46559;-66
2023/03/02 01:00:28;;;;;;;;;52.00;42.60;;;;;5.93;45.71;101453.41;2089026;28;46575;-67
2023/03/02 01:01:28;;;;;;;;;57.60;45.00;;;;;5.91;45.76;101457.78;2074873;28;46746;-67
2023/03/02 01:02:29;;;;;;;;;48.00;39.75;;;;;5.89;45.79;101460.38;2087236;28;46530;-66
2023/03/02 01:03:29;;;;;;;;;45.00;37.75;;;;;5.88;45.59;101463.00;2081187;28;45602;-66
2023/03/02 01:04:35;;;;;;;;;46.00;40.25;;;;;5.86;45.33;101459.47;2079309;28;45441;-67
2023/03/02 01:05:36;;;;;;;;;44.40;39.40;;;;;5.83;45.26;101462.94;2086444;28;46778;-66
2023/03/02 01:06:45;;;;;;;;;46.00;39.25;;;;;5.85;45.79;101457.72;2081529;28;46732;-66
2023/03/02 01:07:46;;;;;;;;;49.80;41.00;;;;;5.85;45.71;101463.00;2079221;28;46700;-67
2023/03/02 01:08:47;;;;;;;;;40.50;38.00;;;;;5.85;45.42;101458.59;2086038;28;46314;-67
2023/03/02 01:09:48;;;;;;;;;40.50;36.50;;;;;5.84;45.40;101458.56;2083991;28;45565;-66
2023/03/02 01:10:48;;;;;;;;;50.00;42.00;;;;;5.84;45.68;101462.09;2086981;28;46821;-66
2023/03/02 01:11:49;;;;;;;;;47.50;39.00;;;;;5.85;45.75;101463.00;2084409;28;44917;-67
2023/03/02 01:12:49;;;;;;;;;39.00;35.75;;;;;5.85;45.76;101463.00;2083464;28;46151;-66
2023/03/02 01:13:49;;;;;;;;;33.00;29.50;;;;;5.84;45.55;101464.75;2079576;28;46506;-66
2023/03/02 01:14:50;;;;;;;;;43.00;38.00;;;;;5.82;45.85;101449.75;2079460;28;45727;-67
2023/03/02 01:16:01;;;;;;;;;44.25;39.00;;;;;5.82;45.84;101462.94;2081491;28;46733;-66
2023/03/02 01:17:03;;;;;;;;;39.00;35.00;;;;;5.81;45.46;101456.78;2095416;28;46421;-67
2023/03/02 01:18:04;;;;;;;;;50.00;41.80;;;;;5.81;45.48;101455.91;2093445;28;47026;-67
2023/03/02 01:19:04;;;;;;;;;42.50;39.50;;;;;5.80;45.93;101462.03;2086006;28;46207;-67
2023/03/02 01:20:07;;;;;;;;;42.25;37.75;;;;;5.80;45.50;101462.03;2075799;28;46728;-66
2023/03/02 01:21:11;;;;;;;;;46.40;40.60;;;;;5.79;45.69;101457.66;2091254;28;46069;-67
2023/03/02 01:22:11;;;;;;;;;45.00;37.80;;;;;5.78;45.51;101456.75;2086592;28;46138;-67
2023/03/02 01:23:11;;;;;;;;;47.50;39.00;;;;;5.79;45.83;101460.28;2079327;28;45886;-67
2023/03/02 01:24:12;;;;;;;;;54.25;42.75;;;;;5.77;45.59;101455.00;2082537;28;46177;-68
2023/03/02 01:25:12;;;;;;;;;51.00;40.50;;;;;5.77;46.13;101456.75;2087538;28;45711;-66
2023/03/02 01:26:13;;;;;;;;;50.50;39.25;;;;;5.75;46.02;101450.59;2081041;28;46503;-66
2023/03/02 01:27:14;;;;;;;;;43.75;38.75;;;;;5.76;45.67;101455.00;2080459;28;45684;-66
2023/03/02 01:28:14;;;;;;;;;46.40;39.80;;;;;5.76;45.56;101453.25;2087854;28;45942;-67
2023/03/02 01:29:14;;;;;;;;;53.50;42.25;;;;;5.75;46.00;101455.84;2083321;28;46607;-66
2023/03/02 01:30:15;;;;;;;;;53.75;42.25;;;;;5.76;45.52;101452.34;2079663;28;46638;-67
2023/03/02 01:31:16;;;;;;;;;42.00;38.75;;;;;5.74;45.91;101456.72;2082402;28;46482;-66
2023/03/02 01:32:16;;;;;;;;;52.50;42.00;;;;;5.74;45.82;101454.09;2087461;28;46333;-67
2023/03/02 01:33:16;;;;;;;;;46.75;41.25;;;;;5.74;45.92;101451.47;2088520;28;45001;-67
2023/03/02 01:34:16;;;;;;;;;47.00;41.50;;;;;5.72;45.89;101454.09;2102905;28;46310;-67
2023/03/02 01:35:17;;;;;;;;;42.00;35.50;;;;;5.73;45.94;101452.34;2103361;28;46270;-66
2023/03/02 01:36:17;;;;;;;;;49.00;41.00;;;;;5.73;45.85;101452.34;2080123;28;45881;-67
2023/03/02 01:37:19;;;;;;;;;53.25;42.00;;;;;5.70;45.90;101445.25;2095676;28;46008;-66
2023/03/02 01:38:20;;;;;;;;;50.00;42.00;;;;;5.71;45.77;101448.78;2095329;28;47080;-66
2023/03/02 01:39:21;;;;;;;;;48.25;38.25;;;;;5.70;46.30;101452.28;2086500;28;45678;-66
2023/03/02 01:40:21;;;;;;;;;41.00;38.00;;;;;5.70;46.35;101450.53;2087119;28;47018;-66
2023/03/02 01:41:22;;;;;;;;;43.50;38.50;;;;;5.69;45.88;101451.41;2087538;28;46287;-66
2023/03/02 01:42:22;;;;;;;;;42.50;39.00;;;;;5.70;45.86;101449.66;2094737;28;46691;-66
2023/03/02 01:43:23;;;;;;;;;40.00;36.25;;;;;5.70;46.33;101439.09;2081108;28;46587;-67
2023/03/02 01:44:38;;;;;;;;;53.25;43.00;;;;;5.70;45.94;101444.38;2079215;28;45706;-67
2023/03/02 01:46:02;;;;;;;;;48.00;40.20;;;;;5.69;45.95;101440.88;2085691;28;45941;-66
2023/03/02 01:47:17;;;;;;;;;46.80;41.80;;;;;5.70;46.08;101439.09;2087380;28;46461;-67
2023/03/02 01:48:26;;;;;;;;;54.20;42.40;;;;;5.68;45.80;101435.59;2085414;28;46969;-66
2023/03/02 01:49:27;;;;;;;;;50.20;41.80;;;;;5.67;46.10;101439.09;2079371;28;46532;-66
2023/03/02 01:50:27;;;;;;;;;47.60;42.00;;;;;5.67;46.28;101437.34;2085152;28;46600;-67
2023/03/02 01:51:33;;;;;;;;;41.50;38.50;;;;;5.68;46.42;101436.47;2093872;28;46415;-67
2023/03/02 01:52:37;;;;;;;;;43.00;39.80;;;;;5.66;46.09;101438.22;2086210;28;46329;-67
2023/03/02 01:53:37;;;;;;;;;37.20;31.40;;;;;5.66;45.88;101437.31;2095384;28;45894;-67
2023/03/02 01:54:40;;;;;;;;;50.00;42.50;;;;;5.64;46.32;101431.16;2095157;28;46608;-67
2023/03/02 01:55:43;;;;;;;;;44.80;38.80;;;;;5.64;45.88;101439.94;2079579;28;45650;-67
2023/03/02 01:56:45;;;;;;;;;44.80;40.00;;;;;5.61;46.29;101432.91;2083561;28;46949;-66
2023/03/02 01:57:50;;;;;;;;;51.80;42.60;;;;;5.62;46.02;101436.41;2088074;28;46998;-67
2023/03/02 01:59:00;;;;;;;;;41.40;38.40;;;;;5.61;46.37;101434.66;2079951;28;46651;-67
2023/03/02 02:00:07;;;;;;;;;46.00;40.40;;;;;5.61;46.16;101438.19;2085734;28;45634;-67
2023/03/02 02:01:14;;;;;;;;;45.80;41.40;;;;;5.60;46.77;101433.78;2104304;28;46850;-66
2023/03/02 02:02:14;;;;;;;;;47.20;40.00;;;;;5.60;46.38;101428.50;2094271;28;46620;-67
2023/03/02 02:03:29;;;;;;;;;50.50;41.75;;;;;5.60;46.06;101438.16;2085398;28;46407;-67
2023/03/02 02:04:31;;;;;;;;;44.60;38.00;;;;;5.60;46.19;101432.91;2087517;28;46582;-67
2023/03/02 02:05:31;;;;;;;;;45.40;40.20;;;;;5.59;46.13;101428.50;2080183;28;46730;-67
2023/03/02 02:06:37;;;;;;;;;48.25;40.75;;;;;5.59;46.31;101431.13;2085564;28;45211;-67
2023/03/02 02:07:38;;;;;;;;;50.00;42.00;;;;;5.58;46.27;101430.22;2088110;28;46519;-67
2023/03/02 02:08:39;;;;;;;;;46.00;39.80;;;;;5.58;46.37;101430.22;2080320;28;46745;-67
2023/03/02 02:09:44;;;;;;;;;50.75;41.25;;;;;5.58;46.15;101435.47;2081013;28;46231;-66
2023/03/02 02:10:45;;;;;;;;;48.40;41.40;;;;;5.57;46.74;101432.84;2080858;28;46907;-66
2023/03/02 02:11:46;;;;;;;;;48.00;43.00;;;;;5.55;46.59;101424.94;2080780;28;46918;-66
2023/03/02 02:12:46;;;;;;;;;48.50;41.75;;;;;5.56;46.40;101431.06;2080707;28;45932;-67
2023/03/02 02:13:47;;;;;;;;;43.75;38.25;;;;;5.54;46.59;101423.16;2080141;28;47681;-67
2023/03/02 02:14:49;;;;;;;;;45.50;40.00;;;;;5.53;46.46;101423.16;2080624;28;45609;-67
2023/03/02 02:15:49;;;;;;;;;44.80;41.00;;;;;5.53;46.55;101425.78;2080362;28;46727;-66
2023/03/02 02:16:50;;;;;;;;;45.00;39.00;;;;;5.52;46.84;101424.91;2080326;28;46067;-68
2023/03/02 02:17:53;;;;;;;;;46.00;41.25;;;;;5.51;46.74;101422.25;2084044;28;46177;-66
2023/03/02 02:18:54;;;;;;;;;50.20;41.40;;;;;5.51;46.43;101420.50;2088797;28;46330;-67
2023/03/02 02:20:09;;;;;;;;;53.80;42.80;;;;;5.51;46.61;101424.91;2087909;28;46517;-67
2023/03/02 02:21:10;;;;;;;;;44.20;38.60;;;;;5.51;46.99;101422.25;2084110;28;46803;-66
2023/03/02 02:22:16;;;;;;;;;47.20;42.60;;;;;5.50;46.73;101423.13;2080702;28;46435;-66
2023/03/02 02:23:27;;;;;;;;;43.00;40.00;;;;;5.50;46.89;101426.66;2081082;28;46903;-67
2023/03/02 02:24:36;;;;;;;;;46.20;40.60;;;;;5.49;46.34;101432.78;2085495;28;45626;-66
2023/03/02 02:25:51;;;;;;;;;46.40;39.40;;;;;5.49;46.81;101427.50;2087529;28;46616;-67
2023/03/02 02:26:54;;;;;;;;;38.40;37.00;;;;;5.49;46.73;101424.88;2089306;28;45704;-66
2023/03/02 02:27:56;;;;;;;;;51.20;40.20;;;;;5.49;46.83;101426.63;2088356;28;45645;-66
2023/03/02 02:29:11;;;;;;;;;56.60;44.60;;;;;5.48;47.13;101420.50;2102581;28;46062;-65
2023/03/02 02:30:14;;;;;;;;;47.20;41.40;;;;;5.49;47.05;101429.25;2092554;28;46448;-66
2023/03/02 02:31:27;;;;;;;;;38.20;36.60;;;;;5.49;46.99;101422.25;2088112;28;45742;-67
2023/03/02 02:32:33;;;;;;;;;45.20;39.40;;;;;5.48;46.73;101423.13;2087825;28;46008;-66
2023/03/02 02:33:37;;;;;;;;;55.80;45.00;;;;;5.47;46.70;101424.00;2088401;28;46565;-66
2023/03/02 02:35:20;;;;;;;;;34.20;33.20;;;;;5.46;46.60;101416.97;2079971;28;46459;-66
2023/03/02 02:36:26;;;;;;;;;47.00;39.80;;;;;5.46;46.54;101411.69;2082475;28;46223;-66
2023/03/02 02:37:46;;;;;;;;;42.20;38.60;;;;;5.46;46.59;101411.69;2096426;28;46728;-67
2023/03/02 02:38:51;;;;;;;;;43.20;39.00;;;;;5.47;47.07;101412.56;2085078;28;47567;-66
2023/03/02 02:39:51;;;;;;;;;46.00;39.80;;;;;5.46;47.01;101405.53;2079518;28;46426;-66
2023/03/02 02:40:55;;;;;;;;;49.00;42.50;;;;;5.45;47.00;101409.91;2079427;28;46814;-67
2023/03/02 02:42:00;;;;;;;;;41.80;35.40;;;;;5.45;46.75;101409.91;2080401;28;46700;-66
2023/03/02 02:43:00;;;;;;;;;50.00;42.00;;;;;5.45;46.92;101411.66;2080136;28;46333;-68
2023/03/02 02:44:01;;;;;;;;;52.75;42.75;;;;;5.44;46.68;101416.03;2080559;28;46309;-67
2023/03/02 02:45:05;;;;;;;;;50.00;41.50;;;;;5.44;47.12;101412.53;2080572;28;46184;-67
2023/03/02 02:46:05;;;;;;;;;53.20;43.20;;;;;5.43;46.81;101414.28;2088817;28;47549;-66
2023/03/02 02:47:19;;;;;;;;;52.00;42.00;;;;;5.42;47.09;101415.16;2088396;28;46607;-67
2023/03/02 02:48:24;;;;;;;;;53.40;44.40;;;;;5.42;46.73;101411.63;2087718;28;46830;-67
2023/03/02 02:49:31;;;;;;;;;53.60;43.00;;;;;5.43;47.08;101408.13;2088361;28;46345;-67
2023/03/02 02:50:34;;;;;;;;;51.00;41.40;;;;;5.43;47.08;101402.88;2081788;28;46661;-67
2023/03/02 02:51:34;;;;;;;;;48.60;38.80;;;;;5.42;46.89;101409.88;2080275;28;46311;-67
2023/03/02 02:52:35;;;;;;;;;44.50;39.50;;;;;5.41;47.02;101407.22;2079889;28;45789;-66
2023/03/02 02:53:57;;;;;;;;;44.20;37.20;;;;;5.39;46.96;101406.34;2080134;28;46332;-66
2023/03/02 02:54:58;;;;;;;;;52.40;41.40;;;;;5.38;47.19;101400.19;2082907;28;46880;-67
2023/03/02 02:55:59;;;;;;;;;51.75;41.75;;;;;5.38;47.30;101399.31;2088335;28;46827;-66
2023/03/02 02:57:02;;;;;;;;;52.00;43.20;;;;;5.36;47.22;101409.81;2082485;28;46049;-67
2023/03/02 02:58:24;;;;;;;;;47.20;41.40;;;;;5.35;47.12;101401.91;2080372;28;46412;-67
2023/03/02 02:59:30;;;;;;;;;39.20;36.60;;;;;5.34;47.05;101400.16;2080248;28;45626;-66
2023/03/02 03:00:31;;;;;;;;;48.00;42.20;;;;;5.34;46.99;101397.53;2085736;28;45583;-66
2023/03/02 03:01:32;;;;;;;;;45.75;39.50;;;;;5.34;47.09;101394.91;2095137;28;45968;-66
2023/03/02 03:02:38;;;;;;;;;49.20;43.20;;;;;5.33;47.03;101391.34;2096276;28;45845;-66
2023/03/02 03:03:42;;;;;;;;;53.20;42.40;;;;;5.33;47.46;101393.97;2087233;28;46524;-66
2023/03/02 03:04:42;;;;;;;;;48.80;40.40;;;;;5.36;47.37;101393.16;2087948;28;45127;-68
2023/03/02 03:05:42;;;;;;;;;52.25;44.25;;;;;5.35;47.10;101397.53;2088531;28;46322;-67
2023/03/02 03:06:59;;;;;;;;;43.75;37.25;;;;;5.36;47.28;101396.66;2088299;28;46521;-67
2023/03/02 03:08:07;;;;;;;;;42.40;39.20;;;;;5.36;47.47;101393.16;2087302;28;46559;-67
2023/03/02 03:09:10;;;;;;;;;52.00;43.60;;;;;5.35;46.88;101402.81;2088477;28;46056;-67
2023/03/02 03:10:22;;;;;;;;;51.80;44.20;;;;;5.34;47.02;101402.78;2080795;28;45969;-68
2023/03/02 03:11:32;;;;;;;;;43.40;39.80;;;;;5.32;47.06;101395.72;2080306;28;46292;-66
2023/03/02 03:12:34;;;;;;;;;49.80;42.80;;;;;5.31;47.37;101403.63;2080135;28;46606;-66
2023/03/02 03:13:36;;;;;;;;;54.60;45.00;;;;;5.31;47.01;101399.22;2079605;28;45718;-66
2023/03/02 03:14:40;;;;;;;;;49.80;43.00;;;;;5.30;47.57;101402.72;2082976;28;46734;-67
2023/03/02 03:15:40;;;;;;;;;54.40;44.00;;;;;5.30;47.51;101402.72;2088385;28;46033;-67
2023/03/02 03:16:45;;;;;;;;;46.75;40.50;;;;;5.31;47.25;101404.50;2087782;28;45743;-67
2023/03/02 03:17:56;;;;;;;;;48.20;39.20;;;;;5.31;47.25;101404.50;2087737;28;46625;-67
2023/03/02 03:19:04;;;;;;;;;47.00;40.60;;;;;5.32;47.47;101411.53;2088492;28;46847;-65
2023/03/02 03:20:06;;;;;;;;;53.80;43.00;;;;;5.31;47.22;101404.50;2071311;28;45710;-67
2023/03/02 03:21:06;;;;;;;;;48.20;42.80;;;;;5.31;47.46;101400.97;2093545;28;46763;-66
2023/03/02 03:22:10;;;;;;;;;46.00;36.00;;;;;5.31;47.28;101400.97;2088057;28;46546;-67
2023/03/02 03:23:11;;;;;;;;;46.80;41.00;;;;;5.31;47.09;101408.88;2079279;28;46984;-67
2023/03/02 03:24:11;;;;;;;;;55.75;45.00;;;;;5.30;47.56;101402.72;2080252;28;46226;-67
2023/03/02 03:25:14;;;;;;;;;58.50;42.50;;;;;5.28;47.10;101407.09;2087547;28;47233;-67
2023/03/02 03:26:15;;;;;;;;;44.00;38.60;;;;;5.28;47.23;101400.97;2079772;28;46476;-66
2023/03/02 03:27:15;;;;;;;;;55.60;44.40;;;;;5.28;47.22;101401.84;2079898;28;46735;-66
2023/03/02 03:28:16;;;;;;;;;52.75;42.50;;;;;5.27;46.90;101401.81;2088613;28;45698;-66
2023/03/02 03:29:17;;;;;;;;;50.00;41.60;;;;;5.26;47.26;101400.94;2084428;28;46161;-66
2023/03/02 03:30:18;;;;;;;;;44.50;38.00;;;;;5.26;47.30;101397.44;2079708;28;46468;-66
2023/03/02 03:31:18;;;;;;;;;51.50;42.25;;;;;5.25;47.69;101403.56;2083689;28;46767;-67
2023/03/02 03:32:19;;;;;;;;;48.00;43.50;;;;;5.25;47.47;101399.19;2085541;28;46820;-66
2023/03/02 03:33:19;;;;;;;;;51.25;42.00;;;;;5.25;47.78;101403.56;2080084;28;45813;-66
2023/03/02 03:34:20;;;;;;;;;53.50;43.25;;;;;5.24;47.80;101402.69;2085408;28;46483;-66
2023/03/02 03:35:21;;;;;;;;;49.75;43.50;;;;;5.24;47.21;101401.81;2087790;28;46210;-67
2023/03/02 03:36:21;;;;;;;;;48.25;42.75;;;;;5.24;47.53;101400.06;2088342;28;46804;-66
2023/03/02 03:37:22;;;;;;;;;49.00;41.50;;;;;5.23;47.35;101398.28;2084501;28;46652;-67
2023/03/02 03:38:23;;;;;;;;;54.80;44.00;;;;;5.24;47.45;101391.28;2080147;28;45854;-66
2023/03/02 03:39:23;;;;;;;;;48.00;42.50;;;;;5.22;47.47;101393.91;2079497;28;46501;-67
2023/03/02 03:40:23;;;;;;;;;45.00;41.00;;;;;5.23;47.45;101400.91;2089361;28;46383;-66
2023/03/02 03:41:24;;;;;;;;;41.75;38.25;;;;;5.21;47.55;101393.88;2096157;28;46836;-66
2023/03/02 03:42:25;;;;;;;;;47.20;41.40;;;;;5.21;47.10;101393.88;2088365;28;47025;-66
2023/03/02 03:43:25;;;;;;;;;57.50;44.75;;;;;5.20;47.78;101395.59;2081510;28;46301;-66
2023/03/02 03:44:26;;;;;;;;;48.50;43.50;;;;;5.20;47.73;101403.50;2096846;28;45626;-66
2023/03/02 03:45:26;;;;;;;;;50.00;44.00;;;;;5.19;47.84;101401.72;2092694;28;45382;-66
2023/03/02 03:46:27;;;;;;;;;48.75;41.00;;;;;5.19;47.50;101399.09;2080485;28;46692;-66
2023/03/02 03:47:27;;;;;;;;;47.60;40.20;;;;;5.19;47.99;101396.47;2079849;28;46696;-66
2023/03/02 03:48:28;;;;;;;;;52.50;43.00;;;;;5.21;47.82;101392.13;2081249;28;45551;-66
2023/03/02 03:49:28;;;;;;;;;52.00;41.75;;;;;5.19;47.92;101396.47;2088152;28;47983;-67
2023/03/02 03:50:29;;;;;;;;;48.75;42.00;;;;;5.19;47.92;101391.19;2081198;28;46579;-66
2023/03/02 03:51:33;;;;;;;;;48.50;40.75;;;;;5.20;47.49;101400.84;2079860;28;46634;-66
2023/03/02 03:52:34;;;;;;;;;45.60;40.40;;;;;5.20;47.80;101395.59;2087725;28;46072;-67
2023/03/02 03:53:35;;;;;;;;;51.75;42.50;;;;;5.20;47.88;101394.72;2087569;28;46313;-66
2023/03/02 03:54:35;;;;;;;;;51.50;41.75;;;;;5.21;47.91;101396.50;2088177;28;48283;-66
2023/03/02 03:55:35;;;;;;;;;49.75;43.00;;;;;5.20;47.97;101395.59;2087055;28;46567;-66
2023/03/02 03:56:42;;;;;;;;;47.50;42.00;;;;;5.20;47.83;101398.22;2087791;28;45868;-67
2023/03/02 03:57:42;;;;;;;;;57.80;44.80;;;;;5.20;47.75;101400.84;2087985;28;46678;-66
2023/03/02 03:58:42;;;;;;;;;52.25;43.50;;;;;5.20;47.99;101405.25;2087518;28;46635;-67
2023/03/02 03:59:43;;;;;;;;;54.50;45.50;;;;;5.20;47.68;101405.25;2087399;28;47054;-66
2023/03/02 04:00:46;;;;;;;;;43.00;40.00;;;;;5.20;47.66;101402.59;2088268;28;46621;-67
2023/03/02 04:01:58;;;;;;;;;50.40;43.60;;;;;5.21;48.45;101404.41;2088197;28;45797;-67
2023/03/02 04:02:58;;;;;;;;;49.60;42.20;;;;;5.19;48.16;101393.84;2087916;28;46712;-67
2023/03/02 04:03:59;;;;;;;;;45.75;39.25;;;;;5.19;48.16;101399.09;2080183;28;45554;-67
2023/03/02 04:05:05;;;;;;;;;52.40;42.60;;;;;5.19;47.54;101404.34;2080285;28;46485;-67
2023/03/02 04:06:05;;;;;;;;;49.20;40.60;;;;;5.20;47.75;101408.75;2079312;28;46864;-67
2023/03/02 04:07:05;;;;;;;;;52.00;43.25;;;;;5.20;47.55;101402.59;2079829;28;45677;-67
2023/03/02 04:08:07;;;;;;;;;58.00;46.75;;;;;5.19;48.00;101401.72;2087118;28;45838;-66
2023/03/02 04:09:08;;;;;;;;;52.80;43.20;;;;;5.17;48.24;101398.19;2087450;28;46816;-66
2023/03/02 04:10:09;;;;;;;;;57.60;46.00;;;;;5.20;48.15;101405.25;2079638;28;46484;-67
2023/03/02 04:11:10;;;;;;;;;43.00;36.60;;;;;5.18;47.93;101399.09;2080068;28;47082;-67
2023/03/02 04:12:11;;;;;;;;;52.50;42.75;;;;;5.19;47.61;101403.47;2079138;28;45073;-66
2023/03/02 04:13:12;;;;;;;;;47.80;41.20;;;;;5.17;47.71;101408.72;2079141;28;45694;-66
2023/03/02 04:14:13;;;;;;;;;54.75;44.25;;;;;5.17;48.22;101405.22;2072039;28;46414;-67
2023/03/02 04:15:15;;;;;;;;;50.60;42.40;;;;;5.19;47.71;101414.88;2080004;28;46499;-66
2023/03/02 04:16:16;;;;;;;;;55.40;45.60;;;;;5.17;47.74;101403.47;2079365;28;46272;-67
2023/03/02 04:17:16;;;;;;;;;47.50;41.00;;;;;5.16;47.73;101403.44;2080145;28;46786;-67
2023/03/02 04:18:16;;;;;;;;;52.50;42.50;;;;;5.14;47.80;101405.19;2080480;28;46387;-67
2023/03/02 04:19:17;;;;;;;;;53.50;45.00;;;;;5.14;48.22;101408.69;2079852;28;46064;-66
2023/03/02 04:20:18;;;;;;;;;47.75;41.75;;;;;5.14;47.60;101418.34;2079607;28;46830;-67
2023/03/02 04:21:19;;;;;;;;;49.20;42.20;;;;;5.12;48.09;101414.81;2081907;28;46159;-67
2023/03/02 04:22:19;;;;;;;;;51.00;44.50;;;;;5.11;48.17;101411.31;2080098;28;46492;-67
2023/03/02 04:23:19;;;;;;;;;56.00;46.25;;;;;5.09;47.79;101415.66;2080196;28;46888;-67
2023/03/02 04:24:22;;;;;;;;;48.25;42.50;;;;;5.08;47.96;101411.25;2079995;28;46419;-67
2023/03/02 04:25:24;;;;;;;;;51.00;42.20;;;;;5.08;48.13;101408.63;2080028;28;45867;-67
2023/03/02 04:26:25;;;;;;;;;48.60;43.40;;;;;5.09;48.32;101417.41;2079047;28;46111;-67
2023/03/02 04:27:26;;;;;;;;;55.60;45.40;;;;;5.09;47.63;101413.03;2079118;28;47102;-67
2023/03/02 04:28:26;;;;;;;;;42.75;40.00;;;;;5.08;48.28;101411.25;2071448;28;46152;-67
2023/03/02 04:29:26;;;;;;;;;56.75;45.25;;;;;5.09;48.19;101422.69;2077278;28;45925;-66
2023/03/02 04:30:27;;;;;;;;;49.00;42.50;;;;;5.07;48.23;101412.13;2079880;28;46854;-67
2023/03/02 04:31:27;;;;;;;;;48.75;42.25;;;;;5.07;48.58;101412.13;2084200;28;46363;-68
2023/03/02 04:32:28;;;;;;;;;55.00;45.25;;;;;5.07;48.18;101414.75;2084099;28;45523;-66
2023/03/02 04:33:28;;;;;;;;;53.25;44.50;;;;;5.08;48.49;101415.63;2079699;28;45183;-67
2023/03/02 04:34:28;;;;;;;;;53.25;42.50;;;;;5.08;48.07;101416.50;2079587;28;46381;-66
2023/03/02 04:35:29;;;;;;;;;54.75;44.75;;;;;5.09;48.06;101422.69;2086243;28;46235;-67
2023/03/02 04:36:31;;;;;;;;;56.25;45.25;;;;;5.08;48.36;101427.03;2086857;28;46813;-67
2023/03/02 04:37:31;;;;;;;;;53.40;43.00;;;;;5.08;47.98;101418.25;2092320;28;46554;-66
2023/03/02 04:38:31;;;;;;;;;51.25;42.50;;;;;5.07;48.20;101413.84;2095238;28;46539;-67
2023/03/02 04:39:32;;;;;;;;;52.75;44.25;;;;;5.06;48.02;101420.00;2079681;28;46259;-67
2023/03/02 04:40:32;;;;;;;;;48.75;42.50;;;;;5.05;48.06;101419.09;2079286;28;46164;-66
2023/03/02 04:41:33;;;;;;;;;49.50;41.25;;;;;5.03;47.99;101416.47;2079795;28;46858;-66
2023/03/02 04:42:34;;;;;;;;;58.00;44.80;;;;;5.05;48.16;101426.13;2079691;28;46481;-67
2023/03/02 04:43:34;;;;;;;;;54.25;43.75;;;;;5.03;47.95;101415.56;2079844;28;46088;-67
2023/03/02 04:44:34;;;;;;;;;46.50;39.50;;;;;5.02;48.16;101421.72;2079506;28;46387;-66
2023/03/02 04:45:35;;;;;;;;;46.75;42.00;;;;;5.00;48.39;101416.44;2079416;28;46337;-67
2023/03/02 04:46:35;;;;;;;;;58.00;48.25;;;;;5.01;48.40;101430.47;2079937;28;45784;-67
2023/03/02 04:47:35;;;;;;;;;53.50;45.75;;;;;4.99;47.98;101419.94;2079314;28;46383;-67